sensor_id;sensor_type;location;lat;lon;timestamp;P1;durP1;ratioP1;P2;durP2;ratioP2
8260;SDS011;64115;50.170;8.242;2022-12-07T00:01:21;27.40;;;14.47;;
8260;SDS011;64115;50.170;8.242;2022-12-07T00:03:50;27.50;;;15.07;;
8260;SDS011;64115;50.170;8.242;2022-12-07T00:06:19;25.57;;;14.70;;
8260;SDS011;64115;50.170;8.242;2022-12-07T00:08:48;26.33;;;15.33;;
8260;SDS011;64115;50.170;8.242;2022-12-07T00:11:15;27.20;;;14.93;;
8260;SDS011;64115;50.170;8.242;2022-12-07T00:13:43;26.60;;;14.47;;
8260;SDS011;64115;50.170;8.242;2022-12-07T00:16:11;26.40;;;13.87;;
8260;SDS011;64115;50.170;8.242;2022-12-07T00:18:40;24.80;;;13.13;;
8260;SDS011;64115;50.170;8.242;2022-12-07T00:21:09;24.67;;;13.73;;
8260;SDS011;64115;50.170;8.242;2022-12-07T00:23:37;25.97;;;13.90;;
8260;SDS011;64115;50.170;8.242;2022-12-07T00:26:07;25.23;;;14.17;;
8260;SDS011;64115;50.170;8.242;2022-12-07T00:28:35;25.77;;;14.50;;
8260;SDS011;64115;50.170;8.242;2022-12-07T00:31:03;23.63;;;13.43;;
8260;SDS011;64115;50.170;8.242;2022-12-07T00:33:33;24.03;;;13.23;;
8260;SDS011;64115;50.170;8.242;2022-12-07T00:36:01;27.10;;;13.57;;
8260;SDS011;64115;50.170;8.242;2022-12-07T00:38:30;25.53;;;13.77;;
8260;SDS011;64115;50.170;8.242;2022-12-07T00:41:00;28.13;;;14.60;;
8260;SDS011;64115;50.170;8.242;2022-12-07T00:43:31;30.47;;;14.70;;
8260;SDS011;64115;50.170;8.242;2022-12-07T00:45:58;30.57;;;14.23;;
8260;SDS011;64115;50.170;8.242;2022-12-07T00:48:25;24.67;;;13.40;;
8260;SDS011;64115;50.170;8.242;2022-12-07T00:50:51;23.57;;;13.77;;
8260;SDS011;64115;50.170;8.242;2022-12-07T00:53:18;21.37;;;11.77;;
8260;SDS011;64115;50.170;8.242;2022-12-07T00:55:45;22.23;;;12.57;;
8260;SDS011;64115;50.170;8.242;2022-12-07T00:58:12;20.00;;;12.03;;
8260;SDS011;64115;50.170;8.242;2022-12-07T01:00:41;22.37;;;12.23;;
8260;SDS011;64115;50.170;8.242;2022-12-07T01:03:10;20.30;;;11.37;;
8260;SDS011;64115;50.170;8.242;2022-12-07T01:05:37;20.50;;;11.40;;
8260;SDS011;64115;50.170;8.242;2022-12-07T01:08:04;19.73;;;11.27;;
8260;SDS011;64115;50.170;8.242;2022-12-07T01:10:32;19.07;;;11.57;;
8260;SDS011;64115;50.170;8.242;2022-12-07T01:12:59;17.50;;;11.20;;
8260;SDS011;64115;50.170;8.242;2022-12-07T01:15:25;19.97;;;11.47;;
8260;SDS011;64115;50.170;8.242;2022-12-07T01:17:54;15.73;;;9.70;;
8260;SDS011;64115;50.170;8.242;2022-12-07T01:20:21;21.07;;;11.57;;
8260;SDS011;64115;50.170;8.242;2022-12-07T01:22:48;20.83;;;11.00;;
8260;SDS011;64115;50.170;8.242;2022-12-07T01:25:15;21.30;;;11.30;;
8260;SDS011;64115;50.170;8.242;2022-12-07T01:27:41;18.37;;;11.00;;
8260;SDS011;64115;50.170;8.242;2022-12-07T01:30:10;19.37;;;11.43;;
8260;SDS011;64115;50.170;8.242;2022-12-07T01:32:38;20.80;;;11.23;;
8260;SDS011;64115;50.170;8.242;2022-12-07T01:35:06;22.23;;;11.17;;
8260;SDS011;64115;50.170;8.242;2022-12-07T01:37:34;19.53;;;11.47;;
8260;SDS011;64115;50.170;8.242;2022-12-07T01:40:02;19.43;;;11.00;;
8260;SDS011;64115;50.170;8.242;2022-12-07T01:42:30;19.40;;;10.47;;
8260;SDS011;64115;50.170;8.242;2022-12-07T01:45:34;18.17;;;10.70;;
8260;SDS011;64115;50.170;8.242;2022-12-07T01:48:04;17.67;;;10.60;;
8260;SDS011;64115;50.170;8.242;2022-12-07T01:50:33;20.83;;;10.90;;
8260;SDS011;64115;50.170;8.242;2022-12-07T01:53:02;16.63;;;9.97;;
8260;SDS011;64115;50.170;8.242;2022-12-07T01:55:32;17.27;;;10.17;;
8260;SDS011;64115;50.170;8.242;2022-12-07T01:58:00;15.47;;;9.37;;
8260;SDS011;64115;50.170;8.242;2022-12-07T02:00:27;18.57;;;9.90;;
8260;SDS011;64115;50.170;8.242;2022-12-07T02:02:55;19.27;;;9.53;;
8260;SDS011;64115;50.170;8.242;2022-12-07T02:05:29;16.57;;;9.30;;
8260;SDS011;64115;50.170;8.242;2022-12-07T02:07:58;15.40;;;9.40;;
8260;SDS011;64115;50.170;8.242;2022-12-07T02:10:26;16.57;;;9.37;;
8260;SDS011;64115;50.170;8.242;2022-12-07T02:12:55;15.63;;;9.60;;
8260;SDS011;64115;50.170;8.242;2022-12-07T02:15:26;16.13;;;9.40;;
8260;SDS011;64115;50.170;8.242;2022-12-07T02:18:07;15.10;;;9.70;;
8260;SDS011;64115;50.170;8.242;2022-12-07T02:20:42;16.17;;;8.90;;
8260;SDS011;64115;50.170;8.242;2022-12-07T02:29:17;12.83;;;7.97;;
8260;SDS011;64115;50.170;8.242;2022-12-07T02:31:50;13.70;;;8.00;;
8260;SDS011;64115;50.170;8.242;2022-12-07T02:34:26;13.40;;;7.80;;
8260;SDS011;64115;50.170;8.242;2022-12-07T02:37:00;11.17;;;7.83;;
8260;SDS011;64115;50.170;8.242;2022-12-07T02:39:34;12.57;;;8.13;;
8260;SDS011;64115;50.170;8.242;2022-12-07T02:42:07;12.83;;;8.33;;
8260;SDS011;64115;50.170;8.242;2022-12-07T02:44:41;15.23;;;8.13;;
8260;SDS011;64115;50.170;8.242;2022-12-07T02:47:09;12.67;;;8.13;;
8260;SDS011;64115;50.170;8.242;2022-12-07T02:49:39;15.47;;;8.77;;
8260;SDS011;64115;50.170;8.242;2022-12-07T02:52:06;13.53;;;8.50;;
8260;SDS011;64115;50.170;8.242;2022-12-07T02:54:33;13.23;;;8.40;;
8260;SDS011;64115;50.170;8.242;2022-12-07T02:57:01;13.17;;;8.63;;
8260;SDS011;64115;50.170;8.242;2022-12-07T02:59:40;15.43;;;8.93;;
8260;SDS011;64115;50.170;8.242;2022-12-07T03:02:21;15.37;;;9.50;;
8260;SDS011;64115;50.170;8.242;2022-12-07T03:05:00;15.27;;;8.93;;
8260;SDS011;64115;50.170;8.242;2022-12-07T03:07:54;16.80;;;9.40;;
8260;SDS011;64115;50.170;8.242;2022-12-07T03:10:28;14.53;;;8.87;;
8260;SDS011;64115;50.170;8.242;2022-12-07T03:13:05;14.93;;;8.80;;
8260;SDS011;64115;50.170;8.242;2022-12-07T03:15:40;16.83;;;9.20;;
8260;SDS011;64115;50.170;8.242;2022-12-07T03:18:13;15.30;;;9.27;;
8260;SDS011;64115;50.170;8.242;2022-12-07T03:20:44;15.27;;;9.97;;
8260;SDS011;64115;50.170;8.242;2022-12-07T03:23:14;16.83;;;10.30;;
8260;SDS011;64115;50.170;8.242;2022-12-07T03:25:44;16.80;;;10.03;;
8260;SDS011;64115;50.170;8.242;2022-12-07T03:28:14;16.73;;;10.60;;
8260;SDS011;64115;50.170;8.242;2022-12-07T03:30:46;14.63;;;9.87;;
8260;SDS011;64115;50.170;8.242;2022-12-07T03:33:18;15.30;;;9.83;;
8260;SDS011;64115;50.170;8.242;2022-12-07T03:35:51;15.50;;;10.10;;
8260;SDS011;64115;50.170;8.242;2022-12-07T03:38:24;17.83;;;10.90;;
8260;SDS011;64115;50.170;8.242;2022-12-07T03:40:57;17.60;;;10.73;;
8260;SDS011;64115;50.170;8.242;2022-12-07T03:43:27;17.43;;;10.20;;
8260;SDS011;64115;50.170;8.242;2022-12-07T03:45:59;16.83;;;11.23;;
8260;SDS011;64115;50.170;8.242;2022-12-07T03:48:32;18.50;;;10.17;;
8260;SDS011;64115;50.170;8.242;2022-12-07T03:51:06;18.80;;;11.43;;
8260;SDS011;64115;50.170;8.242;2022-12-07T03:53:39;15.23;;;10.73;;
8260;SDS011;64115;50.170;8.242;2022-12-07T03:56:12;17.87;;;11.40;;
8260;SDS011;64115;50.170;8.242;2022-12-07T03:58:40;16.93;;;11.77;;
8260;SDS011;64115;50.170;8.242;2022-12-07T04:01:09;17.53;;;11.23;;
8260;SDS011;64115;50.170;8.242;2022-12-07T04:03:36;18.07;;;11.20;;
8260;SDS011;64115;50.170;8.242;2022-12-07T04:06:03;22.07;;;11.83;;
8260;SDS011;64115;50.170;8.242;2022-12-07T04:08:30;21.00;;;12.37;;
8260;SDS011;64115;50.170;8.242;2022-12-07T04:10:57;20.23;;;12.37;;
8260;SDS011;64115;50.170;8.242;2022-12-07T04:13:24;21.93;;;11.77;;
8260;SDS011;64115;50.170;8.242;2022-12-07T04:15:51;21.63;;;12.90;;
8260;SDS011;64115;50.170;8.242;2022-12-07T04:18:19;26.00;;;13.57;;
8260;SDS011;64115;50.170;8.242;2022-12-07T04:20:46;21.80;;;13.30;;
8260;SDS011;64115;50.170;8.242;2022-12-07T04:23:13;20.70;;;12.77;;
8260;SDS011;64115;50.170;8.242;2022-12-07T04:25:40;19.70;;;12.70;;
8260;SDS011;64115;50.170;8.242;2022-12-07T04:28:07;24.13;;;13.43;;
8260;SDS011;64115;50.170;8.242;2022-12-07T04:30:33;20.43;;;12.77;;
8260;SDS011;64115;50.170;8.242;2022-12-07T04:33:00;19.97;;;13.13;;
8260;SDS011;64115;50.170;8.242;2022-12-07T04:35:28;21.07;;;12.93;;
8260;SDS011;64115;50.170;8.242;2022-12-07T04:37:55;21.83;;;13.03;;
8260;SDS011;64115;50.170;8.242;2022-12-07T04:40:22;21.40;;;13.50;;
8260;SDS011;64115;50.170;8.242;2022-12-07T04:42:49;22.80;;;13.33;;
8260;SDS011;64115;50.170;8.242;2022-12-07T04:45:16;24.27;;;13.63;;
8260;SDS011;64115;50.170;8.242;2022-12-07T04:47:42;21.13;;;13.00;;
8260;SDS011;64115;50.170;8.242;2022-12-07T04:50:09;23.90;;;13.63;;
8260;SDS011;64115;50.170;8.242;2022-12-07T04:52:38;22.00;;;13.20;;
8260;SDS011;64115;50.170;8.242;2022-12-07T04:55:05;21.73;;;13.07;;
8260;SDS011;64115;50.170;8.242;2022-12-07T04:57:32;23.77;;;13.83;;
8260;SDS011;64115;50.170;8.242;2022-12-07T04:59:59;26.73;;;13.80;;
8260;SDS011;64115;50.170;8.242;2022-12-07T05:02:26;23.20;;;14.00;;
8260;SDS011;64115;50.170;8.242;2022-12-07T05:04:52;20.93;;;13.13;;
8260;SDS011;64115;50.170;8.242;2022-12-07T05:07:19;26.43;;;14.67;;
8260;SDS011;64115;50.170;8.242;2022-12-07T05:09:47;23.10;;;12.97;;
8260;SDS011;64115;50.170;8.242;2022-12-07T05:12:14;22.37;;;13.10;;
8260;SDS011;64115;50.170;8.242;2022-12-07T05:14:41;20.90;;;12.80;;
8260;SDS011;64115;50.170;8.242;2022-12-07T05:17:07;21.23;;;12.60;;
8260;SDS011;64115;50.170;8.242;2022-12-07T05:19:36;19.97;;;12.13;;
8260;SDS011;64115;50.170;8.242;2022-12-07T05:22:03;22.33;;;13.03;;
8260;SDS011;64115;50.170;8.242;2022-12-07T05:24:30;21.60;;;12.43;;
8260;SDS011;64115;50.170;8.242;2022-12-07T05:26:58;19.63;;;12.13;;
8260;SDS011;64115;50.170;8.242;2022-12-07T05:29:25;20.70;;;11.93;;
8260;SDS011;64115;50.170;8.242;2022-12-07T05:31:51;19.93;;;12.43;;
8260;SDS011;64115;50.170;8.242;2022-12-07T05:34:18;19.50;;;11.90;;
8260;SDS011;64115;50.170;8.242;2022-12-07T05:36:45;20.40;;;13.03;;
8260;SDS011;64115;50.170;8.242;2022-12-07T05:39:12;20.30;;;12.37;;
8260;SDS011;64115;50.170;8.242;2022-12-07T05:41:38;21.97;;;12.50;;
8260;SDS011;64115;50.170;8.242;2022-12-07T05:44:24;24.77;;;13.30;;
8260;SDS011;64115;50.170;8.242;2022-12-07T05:46:51;19.77;;;12.70;;
8260;SDS011;64115;50.170;8.242;2022-12-07T05:49:18;19.80;;;12.93;;
8260;SDS011;64115;50.170;8.242;2022-12-07T05:51:44;18.47;;;12.17;;
8260;SDS011;64115;50.170;8.242;2022-12-07T05:54:11;20.30;;;11.97;;
8260;SDS011;64115;50.170;8.242;2022-12-07T05:56:38;15.07;;;10.27;;
8260;SDS011;64115;50.170;8.242;2022-12-07T05:59:05;17.83;;;11.53;;
8260;SDS011;64115;50.170;8.242;2022-12-07T06:01:52;17.13;;;11.13;;
8260;SDS011;64115;50.170;8.242;2022-12-07T06:04:20;17.73;;;11.10;;
8260;SDS011;64115;50.170;8.242;2022-12-07T06:06:48;17.77;;;10.70;;
8260;SDS011;64115;50.170;8.242;2022-12-07T06:09:15;19.37;;;11.63;;
8260;SDS011;64115;50.170;8.242;2022-12-07T06:11:43;19.00;;;11.17;;
8260;SDS011;64115;50.170;8.242;2022-12-07T06:14:27;18.87;;;11.03;;
8260;SDS011;64115;50.170;8.242;2022-12-07T06:16:56;18.07;;;10.33;;
8260;SDS011;64115;50.170;8.242;2022-12-07T06:19:22;17.83;;;11.30;;
8260;SDS011;64115;50.170;8.242;2022-12-07T06:21:49;16.47;;;11.17;;
8260;SDS011;64115;50.170;8.242;2022-12-07T06:24:17;14.10;;;10.23;;
8260;SDS011;64115;50.170;8.242;2022-12-07T06:26:44;16.90;;;10.83;;
8260;SDS011;64115;50.170;8.242;2022-12-07T06:29:11;14.50;;;10.60;;
8260;SDS011;64115;50.170;8.242;2022-12-07T06:31:38;16.27;;;10.80;;
8260;SDS011;64115;50.170;8.242;2022-12-07T06:34:08;14.23;;;10.50;;
8260;SDS011;64115;50.170;8.242;2022-12-07T06:36:36;14.67;;;10.27;;
8260;SDS011;64115;50.170;8.242;2022-12-07T06:39:04;15.10;;;10.80;;
8260;SDS011;64115;50.170;8.242;2022-12-07T06:41:32;14.73;;;10.17;;
8260;SDS011;64115;50.170;8.242;2022-12-07T06:43:59;13.20;;;10.37;;
8260;SDS011;64115;50.170;8.242;2022-12-07T06:46:26;13.10;;;10.10;;
8260;SDS011;64115;50.170;8.242;2022-12-07T06:48:53;12.50;;;9.43;;
8260;SDS011;64115;50.170;8.242;2022-12-07T06:51:21;16.50;;;10.57;;
8260;SDS011;64115;50.170;8.242;2022-12-07T06:53:48;16.33;;;9.67;;
8260;SDS011;64115;50.170;8.242;2022-12-07T06:56:16;13.40;;;9.60;;
8260;SDS011;64115;50.170;8.242;2022-12-07T06:58:43;13.47;;;10.00;;
8260;SDS011;64115;50.170;8.242;2022-12-07T07:01:10;14.60;;;9.97;;
8260;SDS011;64115;50.170;8.242;2022-12-07T07:03:38;14.57;;;9.70;;
8260;SDS011;64115;50.170;8.242;2022-12-07T07:06:06;13.33;;;10.10;;
8260;SDS011;64115;50.170;8.242;2022-12-07T07:08:35;14.00;;;9.80;;
8260;SDS011;64115;50.170;8.242;2022-12-07T07:11:02;10.90;;;8.93;;
8260;SDS011;64115;50.170;8.242;2022-12-07T07:13:29;11.43;;;8.63;;
8260;SDS011;64115;50.170;8.242;2022-12-07T07:15:56;12.63;;;8.87;;
8260;SDS011;64115;50.170;8.242;2022-12-07T07:18:23;12.80;;;8.60;;
8260;SDS011;64115;50.170;8.242;2022-12-07T07:20:50;13.23;;;9.40;;
8260;SDS011;64115;50.170;8.242;2022-12-07T07:23:17;13.60;;;9.10;;
8260;SDS011;64115;50.170;8.242;2022-12-07T07:25:46;10.90;;;7.90;;
8260;SDS011;64115;50.170;8.242;2022-12-07T07:28:13;10.80;;;8.60;;
8260;SDS011;64115;50.170;8.242;2022-12-07T07:30:40;12.27;;;8.20;;
8260;SDS011;64115;50.170;8.242;2022-12-07T07:33:07;10.93;;;8.47;;
8260;SDS011;64115;50.170;8.242;2022-12-07T07:35:36;10.47;;;9.00;;
8260;SDS011;64115;50.170;8.242;2022-12-07T07:38:03;11.47;;;8.97;;
8260;SDS011;64115;50.170;8.242;2022-12-07T07:40:31;12.60;;;8.50;;
8260;SDS011;64115;50.170;8.242;2022-12-07T07:42:59;11.90;;;9.00;;
8260;SDS011;64115;50.170;8.242;2022-12-07T07:45:26;12.83;;;8.77;;
8260;SDS011;64115;50.170;8.242;2022-12-07T07:47:53;13.30;;;10.10;;
8260;SDS011;64115;50.170;8.242;2022-12-07T07:50:20;11.67;;;9.27;;
8260;SDS011;64115;50.170;8.242;2022-12-07T07:52:47;11.87;;;8.73;;
8260;SDS011;64115;50.170;8.242;2022-12-07T07:55:14;10.40;;;8.27;;
8260;SDS011;64115;50.170;8.242;2022-12-07T07:57:41;9.70;;;8.20;;
8260;SDS011;64115;50.170;8.242;2022-12-07T08:00:11;11.40;;;8.27;;
8260;SDS011;64115;50.170;8.242;2022-12-07T08:02:40;11.77;;;8.23;;
8260;SDS011;64115;50.170;8.242;2022-12-07T08:05:08;10.53;;;7.83;;
8260;SDS011;64115;50.170;8.242;2022-12-07T08:07:35;8.27;;;7.37;;
8260;SDS011;64115;50.170;8.242;2022-12-07T08:10:02;9.80;;;7.10;;
8260;SDS011;64115;50.170;8.242;2022-12-07T08:12:29;9.13;;;7.53;;
8260;SDS011;64115;50.170;8.242;2022-12-07T08:14:56;9.50;;;8.03;;
8260;SDS011;64115;50.170;8.242;2022-12-07T08:17:24;7.73;;;6.90;;
8260;SDS011;64115;50.170;8.242;2022-12-07T08:19:51;9.37;;;7.83;;
8260;SDS011;64115;50.170;8.242;2022-12-07T08:22:18;8.73;;;7.73;;
8260;SDS011;64115;50.170;8.242;2022-12-07T08:24:45;9.90;;;8.27;;
8260;SDS011;64115;50.170;8.242;2022-12-07T08:27:11;9.93;;;8.07;;
8260;SDS011;64115;50.170;8.242;2022-12-07T08:29:38;9.47;;;8.47;;
8260;SDS011;64115;50.170;8.242;2022-12-07T08:32:05;9.97;;;8.33;;
8260;SDS011;64115;50.170;8.242;2022-12-07T08:34:33;14.20;;;8.73;;
8260;SDS011;64115;50.170;8.242;2022-12-07T08:37:00;8.70;;;7.77;;
8260;SDS011;64115;50.170;8.242;2022-12-07T08:39:27;10.87;;;8.67;;
8260;SDS011;64115;50.170;8.242;2022-12-07T08:41:54;12.30;;;9.07;;
8260;SDS011;64115;50.170;8.242;2022-12-07T08:44:21;11.80;;;8.97;;
8260;SDS011;64115;50.170;8.242;2022-12-07T08:46:49;11.57;;;8.70;;
8260;SDS011;64115;50.170;8.242;2022-12-07T08:49:19;11.07;;;8.73;;
8260;SDS011;64115;50.170;8.242;2022-12-07T08:51:50;12.50;;;9.17;;
8260;SDS011;64115;50.170;8.242;2022-12-07T08:54:17;12.67;;;9.37;;
8260;SDS011;64115;50.170;8.242;2022-12-07T08:56:45;10.83;;;9.13;;
8260;SDS011;64115;50.170;8.242;2022-12-07T08:59:14;11.17;;;8.53;;
8260;SDS011;64115;50.170;8.242;2022-12-07T09:01:43;10.27;;;8.13;;
8260;SDS011;64115;50.170;8.242;2022-12-07T09:04:10;9.40;;;8.10;;
8260;SDS011;64115;50.170;8.242;2022-12-07T09:06:37;8.30;;;7.50;;
8260;SDS011;64115;50.170;8.242;2022-12-07T09:09:06;9.10;;;7.97;;
8260;SDS011;64115;50.170;8.242;2022-12-07T09:11:33;9.97;;;8.20;;
8260;SDS011;64115;50.170;8.242;2022-12-07T09:14:00;9.33;;;8.17;;
8260;SDS011;64115;50.170;8.242;2022-12-07T09:16:27;11.73;;;8.00;;
8260;SDS011;64115;50.170;8.242;2022-12-07T09:18:54;8.80;;;6.97;;
8260;SDS011;64115;50.170;8.242;2022-12-07T09:21:22;9.87;;;7.80;;
8260;SDS011;64115;50.170;8.242;2022-12-07T09:23:49;8.30;;;7.37;;
8260;SDS011;64115;50.170;8.242;2022-12-07T09:26:17;10.70;;;7.90;;
8260;SDS011;64115;50.170;8.242;2022-12-07T09:28:44;10.83;;;8.07;;
8260;SDS011;64115;50.170;8.242;2022-12-07T09:31:10;10.43;;;8.20;;
8260;SDS011;64115;50.170;8.242;2022-12-07T09:33:37;11.60;;;7.97;;
8260;SDS011;64115;50.170;8.242;2022-12-07T09:36:04;11.00;;;8.20;;
8260;SDS011;64115;50.170;8.242;2022-12-07T09:38:32;8.97;;;7.23;;
8260;SDS011;64115;50.170;8.242;2022-12-07T09:41:03;8.37;;;6.83;;
8260;SDS011;64115;50.170;8.242;2022-12-07T09:43:33;8.60;;;6.93;;
8260;SDS011;64115;50.170;8.242;2022-12-07T09:46:02;7.30;;;6.67;;
8260;SDS011;64115;50.170;8.242;2022-12-07T09:48:31;10.33;;;7.87;;
8260;SDS011;64115;50.170;8.242;2022-12-07T09:51:01;9.07;;;7.63;;
8260;SDS011;64115;50.170;8.242;2022-12-07T09:53:30;9.37;;;7.73;;
8260;SDS011;64115;50.170;8.242;2022-12-07T09:56:00;9.57;;;7.53;;
8260;SDS011;64115;50.170;8.242;2022-12-07T09:58:28;11.00;;;7.30;;
8260;SDS011;64115;50.170;8.242;2022-12-07T10:01:00;10.53;;;7.50;;
8260;SDS011;64115;50.170;8.242;2022-12-07T10:03:31;8.83;;;7.30;;
8260;SDS011;64115;50.170;8.242;2022-12-07T10:05:58;9.57;;;7.20;;
8260;SDS011;64115;50.170;8.242;2022-12-07T10:08:25;9.17;;;7.30;;
8260;SDS011;64115;50.170;8.242;2022-12-07T10:10:52;9.30;;;7.23;;
8260;SDS011;64115;50.170;8.242;2022-12-07T10:13:22;9.33;;;7.80;;
8260;SDS011;64115;50.170;8.242;2022-12-07T10:16:01;8.43;;;7.07;;
8260;SDS011;64115;50.170;8.242;2022-12-07T10:18:29;8.27;;;6.83;;
8260;SDS011;64115;50.170;8.242;2022-12-07T10:21:02;8.37;;;6.97;;
8260;SDS011;64115;50.170;8.242;2022-12-07T10:23:37;8.97;;;6.57;;
8260;SDS011;64115;50.170;8.242;2022-12-07T10:26:25;7.53;;;6.30;;
8260;SDS011;64115;50.170;8.242;2022-12-07T10:28:55;7.00;;;6.33;;
8260;SDS011;64115;50.170;8.242;2022-12-07T10:31:26;8.87;;;5.43;;
8260;SDS011;64115;50.170;8.242;2022-12-07T10:33:53;6.77;;;5.67;;
8260;SDS011;64115;50.170;8.242;2022-12-07T10:36:22;7.43;;;5.80;;
8260;SDS011;64115;50.170;8.242;2022-12-07T10:38:52;6.03;;;4.57;;
8260;SDS011;64115;50.170;8.242;2022-12-07T10:41:24;6.90;;;5.50;;
8260;SDS011;64115;50.170;8.242;2022-12-07T10:43:52;5.80;;;4.97;;
8260;SDS011;64115;50.170;8.242;2022-12-07T10:49:38;4.77;;;4.10;;
8260;SDS011;64115;50.170;8.242;2022-12-07T10:52:18;5.73;;;4.03;;
8260;SDS011;64115;50.170;8.242;2022-12-07T10:55:01;7.80;;;4.13;;
8260;SDS011;64115;50.170;8.242;2022-12-07T10:57:43;6.03;;;4.30;;
8260;SDS011;64115;50.170;8.242;2022-12-07T11:00:20;4.43;;;3.93;;
8260;SDS011;64115;50.170;8.242;2022-12-07T11:03:05;7.77;;;4.53;;
8260;SDS011;64115;50.170;8.242;2022-12-07T11:05:52;6.43;;;4.47;;
8260;SDS011;64115;50.170;8.242;2022-12-07T11:08:26;5.80;;;4.60;;
8260;SDS011;64115;50.170;8.242;2022-12-07T11:11:06;6.30;;;4.87;;
8260;SDS011;64115;50.170;8.242;2022-12-07T11:13:40;5.33;;;4.40;;
8260;SDS011;64115;50.170;8.242;2022-12-07T11:16:30;7.43;;;4.70;;
8260;SDS011;64115;50.170;8.242;2022-12-07T11:19:12;5.40;;;3.80;;
8260;SDS011;64115;50.170;8.242;2022-12-07T11:21:48;4.87;;;3.87;;
8260;SDS011;64115;50.170;8.242;2022-12-07T11:24:23;6.20;;;4.00;;
8260;SDS011;64115;50.170;8.242;2022-12-07T11:27:00;6.37;;;4.30;;
8260;SDS011;64115;50.170;8.242;2022-12-07T11:29:39;7.33;;;4.20;;
8260;SDS011;64115;50.170;8.242;2022-12-07T11:32:14;5.70;;;3.80;;
8260;SDS011;64115;50.170;8.242;2022-12-07T11:34:49;6.93;;;3.97;;
8260;SDS011;64115;50.170;8.242;2022-12-07T11:37:28;4.43;;;3.50;;
8260;SDS011;64115;50.170;8.242;2022-12-07T11:39:59;3.93;;;3.43;;
8260;SDS011;64115;50.170;8.242;2022-12-07T11:42:29;4.00;;;3.47;;
8260;SDS011;64115;50.170;8.242;2022-12-07T11:45:10;6.00;;;3.03;;
8260;SDS011;64115;50.170;8.242;2022-12-07T11:47:45;3.50;;;2.70;;
8260;SDS011;64115;50.170;8.242;2022-12-07T11:50:17;4.23;;;3.23;;
8260;SDS011;64115;50.170;8.242;2022-12-07T11:52:55;5.20;;;2.90;;
8260;SDS011;64115;50.170;8.242;2022-12-07T11:55:26;4.13;;;2.83;;
8260;SDS011;64115;50.170;8.242;2022-12-07T11:57:58;3.73;;;2.70;;
8260;SDS011;64115;50.170;8.242;2022-12-07T12:00:29;4.67;;;3.13;;
8260;SDS011;64115;50.170;8.242;2022-12-07T12:02:57;3.17;;;2.87;;
8260;SDS011;64115;50.170;8.242;2022-12-07T12:05:28;3.47;;;2.67;;
8260;SDS011;64115;50.170;8.242;2022-12-07T12:07:58;5.77;;;2.73;;
8260;SDS011;64115;50.170;8.242;2022-12-07T12:10:32;7.00;;;2.70;;
8260;SDS011;64115;50.170;8.242;2022-12-07T12:13:21;3.53;;;3.03;;
8260;SDS011;64115;50.170;8.242;2022-12-07T12:16:13;2.60;;;2.40;;
8260;SDS011;64115;50.170;8.242;2022-12-07T12:18:58;4.83;;;2.73;;
8260;SDS011;64115;50.170;8.242;2022-12-07T12:21:43;4.33;;;2.77;;
8260;SDS011;64115;50.170;8.242;2022-12-07T12:24:15;3.77;;;2.87;;
8260;SDS011;64115;50.170;8.242;2022-12-07T12:26:48;3.83;;;2.43;;
8260;SDS011;64115;50.170;8.242;2022-12-07T12:29:19;3.90;;;2.80;;
8260;SDS011;64115;50.170;8.242;2022-12-07T12:32:04;3.03;;;2.57;;
8260;SDS011;64115;50.170;8.242;2022-12-07T12:34:38;4.40;;;2.53;;
8260;SDS011;64115;50.170;8.242;2022-12-07T12:58:32;3.50;;;2.70;;
8260;SDS011;64115;50.170;8.242;2022-12-07T13:04:21;6.93;;;3.30;;
8260;SDS011;64115;50.170;8.242;2022-12-07T13:06:51;6.57;;;3.00;;
8260;SDS011;64115;50.170;8.242;2022-12-07T13:09:19;4.27;;;3.27;;
8260;SDS011;64115;50.170;8.242;2022-12-07T13:11:48;5.03;;;2.77;;
8260;SDS011;64115;50.170;8.242;2022-12-07T13:14:35;5.47;;;2.80;;
8260;SDS011;64115;50.170;8.242;2022-12-07T13:20:44;5.77;;;3.07;;
8260;SDS011;64115;50.170;8.242;2022-12-07T13:23:19;3.30;;;2.27;;
8260;SDS011;64115;50.170;8.242;2022-12-07T13:25:53;5.17;;;2.67;;
8260;SDS011;64115;50.170;8.242;2022-12-07T13:28:26;4.27;;;2.53;;
8260;SDS011;64115;50.170;8.242;2022-12-07T13:31:18;3.50;;;2.53;;
8260;SDS011;64115;50.170;8.242;2022-12-07T13:33:52;4.37;;;2.50;;
8260;SDS011;64115;50.170;8.242;2022-12-07T13:36:21;5.17;;;2.63;;
8260;SDS011;64115;50.170;8.242;2022-12-07T13:38:50;3.30;;;2.73;;
8260;SDS011;64115;50.170;8.242;2022-12-07T13:41:19;3.47;;;2.90;;
8260;SDS011;64115;50.170;8.242;2022-12-07T13:43:48;2.40;;;2.20;;
8260;SDS011;64115;50.170;8.242;2022-12-07T13:46:17;2.50;;;1.70;;
8260;SDS011;64115;50.170;8.242;2022-12-07T13:48:49;1.40;;;1.30;;
8260;SDS011;64115;50.170;8.242;2022-12-07T13:51:18;3.63;;;1.50;;
8260;SDS011;64115;50.170;8.242;2022-12-07T13:53:50;2.67;;;1.40;;
8260;SDS011;64115;50.170;8.242;2022-12-07T13:56:20;2.50;;;1.40;;
8260;SDS011;64115;50.170;8.242;2022-12-07T13:58:50;4.17;;;1.63;;
8260;SDS011;64115;50.170;8.242;2022-12-07T14:01:18;2.40;;;1.67;;
8260;SDS011;64115;50.170;8.242;2022-12-07T14:03:45;1.87;;;1.70;;
8260;SDS011;64115;50.170;8.242;2022-12-07T14:06:30;4.53;;;1.80;;
8260;SDS011;64115;50.170;8.242;2022-12-07T14:09:07;2.57;;;1.87;;
8260;SDS011;64115;50.170;8.242;2022-12-07T14:11:35;2.17;;;1.90;;
8260;SDS011;64115;50.170;8.242;2022-12-07T14:14:02;2.27;;;1.80;;
8260;SDS011;64115;50.170;8.242;2022-12-07T14:16:31;2.27;;;1.60;;
8260;SDS011;64115;50.170;8.242;2022-12-07T14:19:00;5.30;;;2.00;;
8260;SDS011;64115;50.170;8.242;2022-12-07T14:21:30;2.93;;;2.20;;
8260;SDS011;64115;50.170;8.242;2022-12-07T14:24:02;6.97;;;1.90;;
8260;SDS011;64115;50.170;8.242;2022-12-07T14:26:41;2.53;;;1.70;;
8260;SDS011;64115;50.170;8.242;2022-12-07T14:31:56;2.70;;;2.00;;
8260;SDS011;64115;50.170;8.242;2022-12-07T14:34:24;4.13;;;2.10;;
8260;SDS011;64115;50.170;8.242;2022-12-07T14:36:53;4.43;;;2.47;;
8260;SDS011;64115;50.170;8.242;2022-12-07T14:39:19;3.67;;;2.23;;
8260;SDS011;64115;50.170;8.242;2022-12-07T14:41:46;2.77;;;1.93;;
8260;SDS011;64115;50.170;8.242;2022-12-07T14:44:20;5.90;;;2.57;;
8260;SDS011;64115;50.170;8.242;2022-12-07T14:46:49;4.60;;;1.90;;
8260;SDS011;64115;50.170;8.242;2022-12-07T14:49:17;4.10;;;2.20;;
8260;SDS011;64115;50.170;8.242;2022-12-07T14:51:44;4.00;;;2.20;;
8260;SDS011;64115;50.170;8.242;2022-12-07T14:54:15;4.23;;;2.10;;
8260;SDS011;64115;50.170;8.242;2022-12-07T14:56:43;4.43;;;2.07;;
8260;SDS011;64115;50.170;8.242;2022-12-07T14:59:14;6.17;;;2.17;;
8260;SDS011;64115;50.170;8.242;2022-12-07T15:01:41;4.07;;;2.40;;
8260;SDS011;64115;50.170;8.242;2022-12-07T15:04:09;3.23;;;1.80;;
8260;SDS011;64115;50.170;8.242;2022-12-07T15:06:36;4.30;;;2.00;;
8260;SDS011;64115;50.170;8.242;2022-12-07T15:09:03;5.87;;;2.03;;
8260;SDS011;64115;50.170;8.242;2022-12-07T15:11:31;4.67;;;2.00;;
8260;SDS011;64115;50.170;8.242;2022-12-07T15:13:58;3.67;;;1.73;;
8260;SDS011;64115;50.170;8.242;2022-12-07T15:16:34;3.30;;;1.73;;
8260;SDS011;64115;50.170;8.242;2022-12-07T15:19:02;6.57;;;1.97;;
8260;SDS011;64115;50.170;8.242;2022-12-07T15:21:29;3.77;;;1.70;;
8260;SDS011;64115;50.170;8.242;2022-12-07T15:23:56;3.13;;;1.67;;
8260;SDS011;64115;50.170;8.242;2022-12-07T15:26:23;4.40;;;1.93;;
8260;SDS011;64115;50.170;8.242;2022-12-07T15:28:53;3.83;;;1.73;;
8260;SDS011;64115;50.170;8.242;2022-12-07T15:31:20;3.90;;;1.50;;
8260;SDS011;64115;50.170;8.242;2022-12-07T15:33:47;2.97;;;1.60;;
8260;SDS011;64115;50.170;8.242;2022-12-07T15:36:17;1.90;;;1.53;;
8260;SDS011;64115;50.170;8.242;2022-12-07T15:38:46;4.30;;;1.40;;
8260;SDS011;64115;50.170;8.242;2022-12-07T15:41:13;2.67;;;1.60;;
8260;SDS011;64115;50.170;8.242;2022-12-07T15:43:40;2.73;;;1.37;;
8260;SDS011;64115;50.170;8.242;2022-12-07T15:46:30;3.43;;;1.50;;